Terminal Aerodrome Forecast
Issued by NWS

Home | Current Version | Previous Version | Text Only | Print | Product List | Glossary On
Versions: 1 2 3 4 5 6 7 8 9 10 11 12 13 14
000
FTUS45 KREV 181757
TAFTRK
TAF
KTRK 181757Z 1818/1918 20020G35KT P6SM SCT035 BKN120 WS020/23045KT
     FM190000 21018G30KT P6SM VCSH SCT020 BKN030 WS020/24040KT
     FM190300 21016G28KT 5SM RA SCT015 OVC025
     FM190600 22010G20KT 1SM -SN OVC010=

USA.gov is the U.S. government's official web portal to all federal, state and local government web resources and services.